Berens River Airport
CYBV : now visible

Airfield :











YOU CAN JOIN US ON...

 
LOGIN :

Register | Disclaimer

   EN    FR    IT 

 









Legend :    VFR   Marginal VFR   IFR   Intensive IFR   Very Intensive IFR
Visi :
Ceiling :
>= 8 km
>= 3000ft
5 to 8 km
1000 to 3000 ft
1500m to 5 km
500 to 1000 ft
800 to 1500m
200 to 500 ft
< 800m
< 200 ft
Symbols :   Thunderstorms  Fog  Heavy snow  Heavy precipitations  Wind > 20 kt






- Airport Elevation : 728 ft
- IATA code : YBV


CYBV - Berens River

CURRENT METAR :
  • 282126Z 12012KT 10SM -SN FEW008 BKN014 OVC021 M01/M03 A2940 RMK CF2SC5SC1 SLP969

EXPIRED METARs :
  • 282100Z 12015KT 15SM -SN FEW009 BKN015 OVC021 M01/M03 A2940 RMK CF3SC4SC1 PCPN VRY LGT SLP969
  • 282043Z 13009G17KT 15SM -SN DRSN FEW007 BKN012 OVC020 M01/M03 A2940 RMK CF3SC4SC1 / PCPN VRY LGT / CU ASOCTD / SLP970
  • 282014Z 12012G20KT 10SM -SN DRSN BKN008 OVC015 M01/M02 A2939 RMK ST5SC3 SLP967
  • 282009Z 12012G19KT 2 1/2SM -SN BLSN BKN010 OVC018 M01/M02 A2939 RMK SN2ST3SC3 SLP967
  • 281934Z 11014KT 3/8SM SN BLSN VV006 M01/M02 A2939 RMK SN8 SLP967
  • 281929Z 12013G23KT 3/4SM -SN BLSN OVC009 M01/M02 A2939 RMK SN6ST2 SLP966
  • 281900Z 12013G20KT 3/8SM -SN BLSN VV006 M02/M02 A2940 RMK SN8 SLP971

TAF N/A
CZWG FIR / North America



MET'MAP, your aeronautical weather chart ! - Copyright ORBIFLY December 2007 - Disclaimer

ORBIFLY MET'MAP TEAM :

Programming & Development : Alexandra Zaïnal
Original concept : Baudouin d'Aumeries
Technical & hardware support : Manuel Goepfert
Assistance : Marc-Olivier Méhu




SOURCES & CREDITS :

   NOAA       Earth
Advisory